Lake Eildon, Victoria

10:36 AM AEDT on February 28, 2015 (GMT +1100)
IVICTORI100 | Change Station
CLOSE
Current Station
Personal Weather Station
Location: Thornton, VICTORIA
Elevation: 695 ft
Nearby Weather Stations

Elev 695 ft 37.27 °S, 145.83 °E | Updated 7 minutes ago

Scattered Clouds
Scattered Clouds
70.3 °F
Feels Like 75 °F
N
0.0
Wind Variable Wind from NNW
Gusts 3.0 mph

Today
High -- | Low -- °F
--% Chance of Precip.
Yesterday
High -- | Low -- °F
Precip. -- in
6:59 AM 7:57 PM
Waxing Gibbous, 72% visible
Pressure 29.71 in
Visibility 6.2 miles
Clouds Scattered Clouds 3300 ft
Scattered Clouds 5700 ft
Scattered Clouds 8500 ft
Heat Index 75 °F
Dew Point 58 °F
Humidity 65%
Rainfall 0.00 in
Snow Depth Not available.
UV 4 out of 12
Pollen Not available.
Air Quality Not available.
Flu Activity Not available.
METAR YMEN 272300Z AUTO 36007KT 9999 // SCT033 SCT057 SCT085 22/15 Q1006

More Conditions Fewer Conditions

Pressure 29.71 in
Visibility 6.2 miles
Clouds Scattered Clouds 3300 ft
Scattered Clouds 5700 ft
Scattered Clouds 8500 ft
Heat Index 75 °F
Dew Point 58 °F
Humidity 65%
Rainfall 0.00 in
Snow Depth Not available.
UV 4 out of 12
Pollen Not available.
Air Quality Not available.
Flu Activity Not available.
METAR YMEN 272300Z AUTO 36007KT 9999 // SCT033 SCT057 SCT085 22/15 Q1006

More Conditions Fewer Conditions

10-Day Weather Forecast

Almanac

Astronomy

Feb. 28, 2015 Rise Set
Actual Time
Civil Twilight
Nautical Twilight
Astronomical Twilight
Moon
Length of Visible Light
Length of Day
Tomorrow will be .
, % of the Moon is Illuminated

Today's Extremes

Country Highs Country Lows

Community

WunderPhotos

Upload Photos

1,800,878 photos uploaded!

WunderBlogs® & News

Nearby

Air Quality

  Air Quality AQ Index Pollutant
Not available.

Snow Depth

Station Depth Elevation

Earthquake Activity

City Distance Mag. Time & Date
Minimum magnitude displayed is 2.5.

Coastal Water Temperatures

Place Temperature

Nearby Weather Stations